To NAV CANADA Home Page Login to a new session Search on AWWS site Disclaimer Vers la page française équivalente Tips FAQ What's new on the site To the Forecasts and Observations / NOTAM section To "File a Flight Plan" website Publications and other links Update of the User's profile FIC Telephone Numbers My Weather Data Folder Route Weather Data Regional Weather Data Local Weather Data To the Forecasts and Observations / NOTAM section
Request Generated 04/24/2019 at 16:42:14 UTC . Weather information available at that time is displayed.

METAR/TAF

SACHS HARBOUR (DAVID NASOGALUAK JR. SAARYUAQ)/NT    

SPECI CYSY 241624Z 34010KT 4SM PRFG BCFG FEW003 M17/M19 A3032 RMK FG1SF1 VIS NNE 1 MILE SLP281=
METAR CYSY 241600Z 34011KT 1SM BR FEW003 M17/M19 A3032 RMK FG1SF1 VIS VRB 1/2 TO 2 MILES SLP281=
SPECI CYSY 241516Z 35011KT 1SM BR FEW210 M17/M19 A3032 RMK FG1CI1 VIS VRB 1/2 TO 2 MILES SLP282=
METAR CYSY 241500Z 34011KT 2SM BR FEW210 M18/M20 A3032 RMK FG1CI1 FROIN SLP283=
SPECI CYSY 241447Z 35011KT 3SM BR FEW210 M18/M20 A3032 RMK FG1CI1 FROIN SLP283=
METAR CYSY 241400Z CCA 35010KT 10SM IC BCFG FEW004 FEW210 M18/M20 A3033 RMK ST1CI1 FOG PATCHES SSE 3 MILES SLP284=
METAR CYSY 241400Z 35010KT 10SM IC BCFG FEW004 FEW210 M18/M20 A3033 RMK ST1CI1 FOG PATCHES SSE 6 MILES SLP284=

TAF AMD CYSY 241529Z 2415/2423 35010KT P6SM FEW004 TEMPO 2415/2420
1SM BR
RMK NXT FCST BY 241900Z=
Your time UTC time
Weather data provided by Environment Canada and NAV CANADA